Time;durP1;ratioP1;P1;durP2;ratioP2;P2;SDS_P1;SDS_P2;PMS_P1;PMS_P2;Temp;Humidity;BMP_temperature;BMP_pressure;BME280_temperature;BME280_humidity;BME280_pressure;Samples;Min_cycle;Max_cycle;Signal;HPM_P1;HPM_P2
2021/11/10 00:00:07;;;;;;;;;;;;;;;;;;;;;
2021/11/10 00:03:22;;;;;;;;;;;;;;;;;;;;;
2021/11/10 00:07:20;;;;;;;;;;;;;;;;;;;;;
2021/11/10 00:14:53;;;;;;;;;;;;;;;;;;;;;
2021/11/10 00:18:27;;;;;;;;;;;;;;;;;;;;;
2021/11/10 00:50:39;;;;;;;7.80;4.60;;;;;;;19.39;48.74;103098.38;103838;1331;60663;-81
2021/11/10 00:54:36;;;;;;;8.40;4.90;;;;;;;19.33;48.77;103105.69;103268;1334;71628;-84
2021/11/10 00:58:25;;;;;;;;;;;;;;;;;;;;;
2021/11/10 01:05:26;;;;;;;6.90;4.70;;;;;;;19.12;48.86;103117.69;101582;1361;59429;-84
2021/11/10 01:30:02;;;;;;;8.30;4.90;;;;;;;19.57;48.92;103121.64;103575;1332;614501;-83
2021/11/10 01:33:26;;;;;;;9.60;4.80;;;;;;;19.50;49.07;103123.28;99358;1335;5462373;-83
2021/11/10 01:48:22;;;;;;;9.00;4.60;;;;;;;19.14;49.29;103119.59;101613;1360;71455;-83
2021/11/10 01:51:58;;;;;;;7.90;4.30;;;;;;;19.09;49.46;103118.86;100757;1369;59303;-83
2021/11/10 01:55:30;;;;;;;;;;;;;;;;;;;;;
2021/11/10 01:59:32;;;;;;;8.10;4.30;;;;;;;18.99;49.61;103123.20;100013;1379;71542;-82
2021/11/10 02:02:54;;;;;;;6.30;4.20;;;;;;;18.96;49.77;103127.38;99508;1384;71230;-83
2021/11/10 02:06:12;;;;;;;;;;;;;;;;;;;;;
2021/11/10 02:09:59;;;;;;;;;;;;;;;;;;;;;
2021/11/10 02:13:08;;;;;;;;;;;;;;;;;;;;;
2021/11/10 02:30:35;;;;;;;;;;;;;;;;;;;;;
2021/11/10 02:38:29;;;;;;;7.30;4.60;;;;;;;19.21;49.79;103103.52;101402;1363;59557;-83
2021/11/10 02:42:18;;;;;;;8.70;4.50;;;;;;;19.14;49.81;103103.53;100559;1371;72870;-83
2021/11/10 02:49:17;;;;;;;7.30;4.40;;;;;;;19.02;50.03;103105.27;99117;1390;60671;-85
2021/11/10 03:07:08;;;;;;;;;;;;;;;;;;;;;
2021/11/10 03:10:56;;;;;;;;;;;;;;;;;;;;;
2021/11/10 03:18:34;;;;;;;;;;;;;;;;;;;;;
2021/11/10 03:29:42;;;;;;;;;;;;;;;;;;;;;
2021/11/10 03:51:34;;;;;;;;;;;;;;;;;;;;;
2021/11/10 04:03:05;;;;;;;;;;;;;;;;;;;;;
2021/11/10 04:10:53;;;;;;;5.70;3.50;;;;;;;18.97;50.47;103171.27;100206;1375;59388;-82
2021/11/10 04:13:49;;;;;;;;;;;;;;;;;;;;;
2021/11/10 04:21:23;;;;;;;96.40;6.30;;;;;;;18.85;49.98;103174.71;98603;1396;73339;-83
2021/11/10 04:25:00;;;;;;;;;;;;;;;;;;;;;
2021/11/10 04:28:30;;;;;;;;;;;;;;;;;;;;;
2021/11/10 04:50:47;;;;;;;69.40;7.10;;;;;;;19.25;47.06;103180.19;96568;1370;5368556;-83
2021/11/10 04:57:46;;;;;;;;;;;;;;;;;;;;;
2021/11/10 05:16:16;;;;;;;;;;;;;;;;;;;;;
2021/11/10 05:23:57;;;;;;;21.20;4.80;;;;;;;18.66;46.67;103230.30;93750;1412;73139;-81
2021/11/10 05:26:59;;;;;;;;;;;;;;;18.61;46.60;103228.64;96677;1416;71667;-83
2021/11/10 05:30:37;;;;;;;;;;;;;;;;;;;;;
2021/11/10 05:34:15;;;;;;;;;;;;;;;;;;;;;
2021/11/10 05:37:52;;;;;;;;;;;;;;;;;;;;;
2021/11/10 05:42:08;;;;;;;12.80;3.90;;;;;;;18.50;45.43;103256.33;101265;1347;599876;-81
2021/11/10 05:45:09;;;;;;;10.30;3.70;;;;;;;18.45;45.02;103256.61;101223;1358;71362;-81
2021/11/10 05:48:25;;;;;;;9.50;3.70;;;;;;;18.46;44.57;103258.93;101299;1361;60673;-81
2021/11/10 05:51:21;;;;;;;12.90;3.90;;;;;;;18.46;44.31;103259.98;101274;1358;60584;-81
2021/11/10 05:54:30;;;;;;;12.50;3.80;;;;;;;18.46;43.99;103264.64;100799;1358;606628;-81
2021/11/10 05:57:39;;;;;;;8.70;3.70;;;;;;;18.46;43.44;103266.95;101361;1354;72127;-81
2021/11/10 06:00:34;;;;;;;13.10;4.30;;;;;;;18.46;42.97;103274.07;101472;1349;62818;-81
2021/11/10 06:03:09;;;;;;;9.80;4.10;;;;;;;18.45;42.95;103277.66;101531;1354;59644;-81
2021/11/10 06:05:38;;;;;;;8.30;4.20;;;;;;;18.45;42.66;103282.65;101486;1354;73078;-83
2021/11/10 06:08:16;;;;;;;;;;;;;;;;;;;;;
2021/11/10 06:11:13;;;;;;;8.60;3.50;;;;;;;18.48;42.27;103278.48;101571;1355;60873;-81
2021/11/10 06:13:54;;;;;;;;;;;;;;;;;;;;;
2021/11/10 06:16:47;;;;;;;11.10;3.80;;;;;;;18.56;42.03;103281.15;101826;1348;74203;-80
2021/11/10 06:19:44;;;;;;;;;;;;;;;;;;;;;
2021/11/10 06:22:59;;;;;;;8.80;3.80;;;;;;;18.68;41.38;103291.98;101469;1356;61338;-80
2021/11/10 06:26:05;;;;;;;11.30;3.80;;;;;;;18.75;41.61;103293.95;100396;1366;59972;-81
2021/11/10 06:33:03;;;;;;;25.60;5.00;;;;;;;18.89;41.34;103297.60;99778;1375;73342;-81
2021/11/10 06:35:59;;;;;;;34.40;4.70;;;;;;;18.96;41.22;103304.59;99960;1372;60488;-80
2021/11/10 06:38:44;;;;;;;28.90;4.90;;;;;;;19.02;41.11;103313.38;99977;1371;61592;-81
2021/11/10 06:41:19;;;;;;;20.20;4.10;;;;;;;19.07;41.05;103316.66;99952;1372;72976;-80
2021/11/10 06:44:00;;;;;;;23.00;4.10;;;;;;;19.12;41.00;103319.06;99843;1375;73288;-81
2021/11/10 06:46:47;;;;;;;25.70;4.10;;;;;;;19.16;40.93;103317.14;99947;1377;61406;-81
2021/11/10 06:50:08;;;;;;;18.80;3.80;;;;;;;19.22;40.97;103333.45;99111;1384;62143;-80
2021/11/10 06:52:54;;;;;;;22.90;3.90;;;;;;;19.26;41.00;103336.73;99311;1380;72043;-82
2021/11/10 06:55:20;;;;;;;17.80;3.80;;;;;;;19.30;41.10;103337.38;99160;1380;60807;-84
2021/11/10 06:58:01;;;;;;;13.30;3.90;;;;;;;19.22;40.78;103336.30;99290;1378;60296;-83
2021/11/10 07:00:30;;;;;;;9.70;4.30;;;;;;;19.00;40.19;103336.28;99312;1371;60549;-81
2021/11/10 07:03:06;;;;;;;24.30;3.50;;;;;;;18.62;39.58;103339.36;100279;1368;71676;-82
2021/11/10 07:05:42;;;;;;;15.50;3.70;;;;;;;18.50;39.74;103334.98;100547;1365;74472;-81
2021/11/10 07:08:38;;;;;;;19.90;3.50;;;;;;;18.55;39.99;103328.28;100392;1367;60013;-81
2021/11/10 07:11:07;;;;;;;12.70;3.20;;;;;;;18.65;39.89;103331.11;101075;1362;61502;-81
2021/11/10 07:13:56;;;;;;;19.80;3.10;;;;;;;18.73;39.86;103339.65;100960;1363;59858;-81
2021/11/10 07:16:44;;;;;;;20.10;3.80;;;;;;;18.83;39.89;103333.75;100990;1360;73003;-81
2021/11/10 07:19:34;;;;;;;18.10;3.70;;;;;;;18.89;39.86;103333.46;100853;1360;60369;-81
2021/11/10 07:22:17;;;;;;;22.00;3.40;;;;;;;18.97;39.83;103333.50;100809;1360;60615;-81
2021/11/10 07:25:12;;;;;;;22.30;4.00;;;;;;;19.03;39.95;103329.41;100829;1364;74239;-82
2021/11/10 07:27:48;;;;;;;16.40;3.30;;;;;;;19.07;39.66;103330.23;101017;1359;74146;-82
2021/11/10 07:30:47;;;;;;;;;;;;;;;;;;;;;
2021/11/10 07:33:52;;;;;;;20.80;3.90;;;;;;;19.04;39.40;103328.31;101047;1363;60489;-82
2021/11/10 07:36:59;;;;;;;;;;;;;;;;;;;;;
2021/11/10 07:39:46;;;;;;;;;;;;;;;;;;;;;
2021/11/10 07:42:36;;;;;;;15.10;2.90;;;;;;;19.15;39.09;103331.09;101193;1359;62033;-81
2021/11/10 07:45:49;;;;;;;14.10;3.10;;;;;;;19.20;39.17;103328.14;101108;1357;60461;-81
2021/11/10 07:49:05;;;;;;;11.90;2.90;;;;;;;19.24;39.29;103329.80;100887;1363;71626;-81
2021/11/10 07:52:00;;;;;;;8.50;3.20;;;;;;;19.30;39.46;103326.65;100726;1363;72415;-82
2021/11/10 07:54:44;;;;;;;;;;;;;;;;;;;;;
2021/11/10 07:57:53;;;;;;;9.40;3.10;;;;;;;19.09;38.52;103323.20;100817;1359;60306;-81
2021/11/10 08:00:27;;;;;;;12.20;3.40;;;;;;;18.86;38.38;103316.21;100913;1359;72908;-82
2021/11/10 08:03:08;;;;;;;12.50;3.50;;;;;;;18.62;38.33;103319.56;100909;1355;73379;-82
2021/11/10 08:05:34;;;;;;;10.20;3.60;;;;;;;18.50;38.56;103321.06;101815;1359;59954;-82
2021/11/10 08:08:00;;;;;;;14.20;3.10;;;;;;;18.52;38.57;103318.89;101793;1358;59902;-82
2021/11/10 08:10:38;;;;;;;11.40;3.00;;;;;;;18.54;38.59;103323.65;101184;1362;59758;-81
2021/11/10 08:13:40;;;;;;;;;;;;;;;;;;;;;
2021/11/10 08:16:38;;;;;;;7.00;3.10;;;;;;;18.57;38.60;103325.55;100629;1365;61561;-82
2021/11/10 08:19:18;;;;;;;8.40;3.10;;;;;;;18.61;38.66;103319.61;100667;1367;60499;-81
2021/11/10 08:21:51;;;;;;;8.40;2.90;;;;;;;18.65;38.60;103309.52;100667;1368;73019;-81
2021/11/10 08:24:17;;;;;;;8.30;3.20;;;;;;;18.71;38.30;103312.75;100966;1366;73153;-82
2021/11/10 08:26:45;;;;;;;6.70;3.10;;;;;;;18.79;38.54;103319.56;101100;1360;59708;-82
2021/11/10 08:29:19;;;;;;;9.30;2.90;;;;;;;18.87;38.39;103310.84;101364;1355;60581;-84
2021/11/10 08:31:45;;;;;;;8.20;3.00;;;;;;;18.93;38.46;103305.37;101428;1354;74167;-83
2021/11/10 08:34:39;;;;;;;7.40;3.10;;;;;;;19.00;38.51;103311.13;101212;1359;59770;-83
2021/11/10 08:37:14;;;;;;;7.60;3.00;;;;;;;19.05;38.56;103313.13;100791;1360;59807;-82
2021/11/10 08:39:43;;;;;;;8.00;3.10;;;;;;;19.11;38.52;103307.46;101571;1364;61884;-83
2021/11/10 08:42:39;;;;;;;15.20;3.20;;;;;;;19.18;38.78;103298.73;101046;1365;74361;-83
2021/11/10 08:45:16;;;;;;;8.50;3.00;;;;;;;19.22;38.82;103298.08;100967;1365;74526;-83
2021/11/10 08:48:12;;;;;;;11.70;3.00;;;;;;;19.28;38.76;103302.23;100972;1365;59837;-81
2021/11/10 08:50:45;;;;;;;20.70;3.50;;;;;;;19.33;38.75;103298.20;101721;1362;59428;-83
2021/11/10 08:53:12;;;;;;;18.40;3.60;;;;;;;19.28;38.72;103297.23;101739;1361;72605;-83
2021/11/10 08:55:41;;;;;;;11.40;3.50;;;;;;;19.19;38.48;103299.05;101939;1360;72997;-82
2021/11/10 08:58:15;;;;;;;9.90;3.50;;;;;;;18.97;38.12;103297.08;101097;1354;60256;-81
2021/11/10 09:00:56;;;;;;;9.90;3.80;;;;;;;18.87;38.40;103288.88;101136;1359;60560;-82
2021/11/10 09:04:21;;;;;;;;;;;;;;;;;;;;;
2021/11/10 09:06:53;;;;;;;11.30;3.20;;;;;;;18.89;38.50;103286.54;101302;1360;73583;-81
2021/11/10 09:09:33;;;;;;;9.80;2.90;;;;;;;18.93;38.72;103282.16;101392;1356;60318;-81
2021/11/10 09:12:09;;;;;;;7.10;2.90;;;;;;;18.99;38.62;103282.38;101350;1355;61665;-81
2021/11/10 09:14:43;;;;;;;9.40;3.30;;;;;;;19.06;38.53;103276.33;101561;1349;72747;-81
2021/11/10 09:17:20;;;;;;;9.50;2.50;;;;;;;19.13;38.80;103273.14;101786;1349;74310;-81
2021/11/10 09:20:09;;;;;;;7.30;2.70;;;;;;;19.20;38.71;103271.19;102682;1352;61427;-82
2021/11/10 09:22:38;;;;;;;10.00;3.20;;;;;;;19.25;38.56;103263.37;102450;1352;61555;-82
2021/11/10 09:25:13;;;;;;;9.10;3.00;;;;;;;19.31;38.54;103266.81;101731;1352;73970;-81
2021/11/10 09:28:01;;;;;;;7.50;2.60;;;;;;;19.36;38.47;103264.36;101675;1351;72048;-83
2021/11/10 09:30:38;;;;;;;9.40;2.50;;;;;;;19.39;38.30;103259.09;101692;1357;61644;-80
2021/11/10 09:33:31;;;;;;;9.10;2.50;;;;;;;19.43;38.40;103261.15;101631;1351;60536;-81
2021/11/10 09:36:12;;;;;;;9.90;2.60;;;;;;;19.46;38.31;103257.15;101648;1351;72834;-82
2021/11/10 09:39:05;;;;;;;14.90;2.90;;;;;;;19.48;38.32;103247.82;101654;1352;74009;-81
2021/11/10 09:42:00;;;;;;;4.40;2.30;;;;;;;19.51;38.49;103252.38;101726;1349;60392;-81
2021/11/10 09:44:52;;;;;;;6.90;2.40;;;;;;;19.54;38.53;103247.29;101627;1351;61731;-81
2021/11/10 09:48:15;;;;;;;5.90;2.60;;;;;;;19.55;38.25;103244.61;101622;1351;73235;-82
2021/11/10 09:50:58;;;;;;;5.10;2.40;;;;;;;19.52;38.15;103247.34;101633;1351;71704;-82
2021/11/10 09:53:29;;;;;;;8.30;2.70;;;;;;;19.29;37.49;103250.80;102534;1350;59349;-82
2021/11/10 09:55:56;;;;;;;7.10;3.20;;;;;;;19.04;37.28;103250.86;102466;1352;59335;-82
2021/11/10 09:58:34;;;;;;;;;;;;;;;;;;;;;
2021/11/10 10:01:09;;;;;;;6.60;2.30;;;;;;;18.66;36.92;103242.06;101531;1348;74302;-81
2021/11/10 10:03:50;;;;;;;6.70;3.10;;;;;;;18.65;37.05;103244.39;101774;1352;60502;-81
2021/11/10 10:06:17;;;;;;;8.70;3.60;;;;;;;18.64;37.05;103244.07;101804;1353;61069;-80
2021/11/10 10:09:19;;;;;;;;;;;;;;;;;;;;;
2021/11/10 10:12:18;;;;;;;6.60;2.90;;;;;;;18.39;36.72;103236.58;102683;1348;74104;-81
2021/11/10 10:14:55;;;;;;;10.50;2.70;;;;;;;18.39;36.65;103234.80;101392;1354;60740;-84
2021/11/10 10:18:20;;;;;;;10.50;3.00;;;;;;;18.40;36.57;103225.87;100779;1365;59695;-81
2021/11/10 10:21:31;;;;;;;9.10;2.70;;;;;;;18.47;36.62;103225.73;100772;1366;73771;-80
2021/11/10 10:24:12;;;;;;;6.70;3.20;;;;;;;18.54;36.57;103223.42;100770;1363;74212;-81
2021/11/10 10:27:19;;;;;;;8.80;3.20;;;;;;;18.53;36.41;103224.15;100735;1361;60876;-81
2021/11/10 10:29:55;;;;;;;6.20;2.90;;;;;;;18.56;36.49;103220.88;100805;1365;61776;-81
2021/11/10 10:32:46;;;;;;;5.20;2.80;;;;;;;18.58;36.27;103215.31;100710;1361;73928;-81
2021/11/10 10:36:07;;;;;;;;;;;;;;;;;;;;;
2021/11/10 10:38:56;;;;;;;5.30;3.00;;;;;;;18.43;35.95;103209.77;100260;1371;61506;-81
2021/11/10 10:41:36;;;;;;;4.60;2.70;;;;;;;18.37;36.00;103203.29;100191;1368;61621;-80
2021/11/10 10:44:38;;;;;;;;;;;;;;;18.34;35.99;103192.65;100178;1368;71520;-81
2021/11/10 10:47:13;;;;;;;6.50;3.10;;;;;;;18.28;35.88;103189.23;100199;1369;73967;-82
2021/11/10 10:49:53;;;;;;;6.20;3.60;;;;;;;18.07;35.63;103182.17;100166;1365;62664;-82
2021/11/10 10:53:02;;;;;;;7.40;3.10;;;;;;;17.70;35.38;103180.73;99818;1372;61139;-83
2021/11/10 10:56:01;;;;;;;9.50;3.00;;;;;;;17.67;35.77;103173.87;100628;1366;73108;-82
2021/11/10 10:58:38;;;;;;;6.20;3.20;;;;;;;17.59;35.55;103162.08;101155;1364;74263;-82
2021/11/10 11:01:26;;;;;;;10.00;3.40;;;;;;;17.33;35.58;103158.82;100876;1365;60229;-82
2021/11/10 11:04:12;;;;;;;7.20;3.50;;;;;;;17.27;35.69;103164.61;101032;1369;60789;-82
2021/11/10 11:07:06;;;;;;;6.10;3.00;;;;;;;17.29;35.75;103158.89;100712;1366;73158;-82
2021/11/10 11:10:10;;;;;;;6.00;3.70;;;;;;;17.34;35.78;103155.59;100526;1367;74438;-81
2021/11/10 11:13:22;;;;;;;6.90;3.20;;;;;;;17.33;35.88;103147.06;100008;1366;61270;-81
2021/11/10 11:16:05;;;;;;;7.50;2.80;;;;;;;17.50;35.88;103148.17;100607;1368;60315;-82
2021/11/10 11:19:36;;;;;;;;;;;;;;;;;;;;;
2021/11/10 11:22:32;;;;;;;;;;;;;;;;;;;;;
2021/11/10 11:25:30;;;;;;;6.90;3.50;;;;;;;17.54;35.63;103137.61;100112;1368;60500;-82
2021/11/10 11:29:05;;;;;;;11.40;3.50;;;;;;;17.52;35.79;103129.98;99799;1371;61838;-81
2021/11/10 11:32:19;;;;;;;7.50;3.70;;;;;;;17.68;35.98;103125.94;99344;1377;72853;-81
2021/11/10 11:35:42;;;;;;;;;;;;;;;;;;;;;
2021/11/10 11:38:33;;;;;;;7.70;3.80;;;;;;;17.80;35.94;103122.86;99202;1380;61344;-82
2021/11/10 11:41:41;;;;;;;;;;;;;;;;;;;;;
2021/11/10 11:44:31;;;;;;;;;;;;;;;;;;;;;
2021/11/10 11:47:02;;;;;;;9.00;4.40;;;;;;;17.26;35.71;103110.17;99443;1387;74158;-83
2021/11/10 11:49:57;;;;;;;6.60;4.20;;;;;;;17.12;35.54;103108.48;98921;1386;61412;-82
2021/11/10 11:52:44;;;;;;;7.40;4.20;;;;;;;16.88;35.68;103110.81;98352;1388;60767;-82
2021/11/10 11:55:54;;;;;;;;;;;;;;;;;;;;;
2021/11/10 11:58:42;;;;;;;7.00;4.50;;;;;;;17.15;36.39;103100.77;99646;1384;75214;-83
2021/11/10 12:01:16;;;;;;;;;;;;;;;17.02;35.73;103097.97;99583;1385;60567;-82
2021/11/10 12:04:23;;;;;;;8.30;4.10;;;;;;;16.76;36.40;103098.56;99613;1383;61541;-83
2021/11/10 12:06:52;;;;;;;7.30;3.50;;;;;;;16.90;36.46;103088.58;99930;1380;72961;-82
2021/11/10 12:09:32;;;;;;;5.00;3.00;;;;;;;16.87;36.38;103089.13;100453;1371;74069;-82
2021/11/10 12:11:59;;;;;;;7.00;3.00;;;;;;;17.00;36.72;103085.02;100744;1369;60403;-82
2021/11/10 12:14:34;;;;;;;7.40;3.00;;;;;;;17.17;36.86;103075.83;100895;1368;60709;-83
2021/11/10 12:17:16;;;;;;;5.80;3.40;;;;;;;17.35;36.97;103071.73;101198;1365;72199;-83
2021/11/10 12:20:01;;;;;;;8.40;4.50;;;;;;;17.47;37.10;103068.66;101236;1363;74269;-82
2021/11/10 12:22:34;;;;;;;6.30;3.10;;;;;;;17.50;36.89;103067.70;102082;1357;61275;-80
2021/11/10 12:25:20;;;;;;;7.70;3.50;;;;;;;17.51;36.80;103060.22;101587;1354;60582;-81
2021/11/10 12:28:49;;;;;;;9.40;4.30;;;;;;;17.59;37.11;103054.52;101243;1357;72036;-81
2021/11/10 12:31:20;;;;;;;10.20;3.60;;;;;;;17.57;36.81;103055.46;100920;1358;72714;-81
2021/11/10 12:35:18;;;;;;;7.20;3.90;;;;;;;17.56;37.15;103053.15;101293;1354;60349;-81
2021/11/10 12:38:08;;;;;;;9.60;4.30;;;;;;;17.45;36.78;103045.90;101209;1356;60932;-81
2021/11/10 12:41:39;;;;;;;;;;;;;;;;;;;;;
2021/11/10 12:45:22;;;;;;;;;;;;;;;;;;;;;
2021/11/10 12:48:05;;;;;;;8.70;4.10;;;;;;;17.45;37.06;103051.60;101122;1359;61460;-81
2021/11/10 12:51:12;;;;;;;7.30;4.10;;;;;;;17.48;37.13;103056.70;100927;1360;60426;-81
2021/11/10 12:54:25;;;;;;;11.10;5.20;;;;;;;17.41;36.82;103051.33;101011;1360;73837;-81
2021/11/10 12:57:14;;;;;;;10.90;4.10;;;;;;;17.12;36.74;103048.88;100712;1360;76636;-81
2021/11/10 13:00:09;;;;;;;;;;;;;;;;;;;;;
2021/11/10 13:03:00;;;;;;;11.60;4.60;;;;;;;17.09;36.96;103046.79;101756;1362;60761;-82
2021/11/10 13:05:30;;;;;;;10.20;4.30;;;;;;;16.94;37.01;103051.86;101120;1363;72967;-81
2021/11/10 13:08:14;;;;;;;11.80;4.70;;;;;;;17.04;37.16;103044.56;101693;1364;75069;-82
2021/11/10 13:10:49;;;;;;;8.40;4.80;;;;;;;17.16;37.14;103041.85;102089;1357;60427;-81
2021/11/10 13:13:15;;;;;;;8.80;4.70;;;;;;;17.20;37.11;103043.90;102274;1357;58690;-81
2021/11/10 13:15:43;;;;;;;9.70;4.50;;;;;;;17.10;36.91;103035.19;102048;1357;58805;-81
2021/11/10 13:18:43;;;;;;;;;;;;;;;;;;;;;
2021/11/10 13:22:43;;;;;;;;;;;;;;;;;;;;;
2021/11/10 13:26:21;;;;;;;;;;;;;;;;;;;;;
2021/11/10 13:33:52;;;;;;;;;;;;;;;;;;;;;
2021/11/10 13:38:04;;;;;;;8.20;4.50;;;;;;;17.19;37.55;103029.33;98865;1387;60848;-82
2021/11/10 13:41:50;;;;;;;9.80;4.20;;;;;;;17.25;37.58;103024.23;98391;1392;61534;-82
2021/11/10 13:49:06;;;;;;;;;;;;;;;;;;;;;
2021/11/10 13:52:51;;;;;;;6.30;3.70;;;;;;;17.40;37.63;103015.38;97095;1406;59474;-82
2021/11/10 13:56:28;;;;;;;7.40;4.10;;;;;;;17.42;37.46;103017.85;93115;1412;5374705;-82
2021/11/10 13:59:21;;;;;;;7.10;4.80;;;;;;;17.45;37.52;103013.69;96207;1420;61021;-82
2021/11/10 14:02:23;;;;;;;;;;;;;;;;;;;;;
2021/11/10 14:05:39;;;;;;;;;;;;;;;;;;;;;
2021/11/10 14:09:07;;;;;;;8.80;5.10;;;;;;;17.43;37.47;103009.80;96171;1420;60688;-81
2021/11/10 14:12:58;;;;;;;8.40;4.20;;;;;;;17.41;37.46;103006.83;96892;1416;61407;-82
2021/11/10 14:16:15;;;;;;;8.90;4.20;;;;;;;17.30;37.38;103005.98;96866;1410;74446;-81
2021/11/10 14:20:01;;;;;;;;;;;;;;;;;;;;;
2021/11/10 14:24:02;;;;;;;8.50;4.70;;;;;;;17.38;37.79;103007.61;96702;1407;60573;-82
2021/11/10 14:27:05;;;;;;;7.30;2.60;;;;;;;17.39;37.60;103005.97;96285;1422;60547;-82
2021/11/10 14:30:41;;;;;;;;;;;;;;;;;;;;;
2021/11/10 14:34:31;;;;;;;;;;;;;;;;;;;;;
2021/11/10 14:38:28;;;;;;;9.40;4.90;;;;;;;17.03;37.59;103004.39;96688;1414;60669;-82
2021/11/10 14:56:46;;;;;;;;;;;;;;;;;;;;;
2021/11/10 15:08:13;;;;;;;;;;;;;;;;;;;;;
2021/11/10 15:12:11;;;;;;;;;;;;;;;;;;;;;
2021/11/10 15:14:47;;;;;;;6.40;3.10;;;;;;;17.55;38.96;102990.31;100859;1339;99342;-81
2021/11/10 15:17:36;;;;;;;12.90;3.50;;;;;;;17.63;38.87;102994.27;101503;1357;60387;-82
2021/11/10 15:20:10;;;;;;;10.80;3.90;;;;;;;17.70;39.00;102994.28;101010;1362;60659;-82
2021/11/10 15:22:43;;;;;;;8.30;3.80;;;;;;;17.75;38.94;102997.91;101032;1358;73039;-81
2021/11/10 15:25:17;;;;;;;7.30;3.70;;;;;;;17.80;38.96;102993.16;101303;1356;74006;-83
2021/11/10 15:27:45;;;;;;;35.00;6.20;;;;;;;17.84;39.02;102990.05;101390;1357;61485;-83
2021/11/10 15:30:13;;;;;;;12.60;4.70;;;;;;;17.87;38.94;102991.22;101233;1354;60648;-84
2021/11/10 15:32:39;;;;;;;85.30;9.60;;;;;;;17.90;38.91;102989.73;101342;1362;74184;-83
2021/11/10 15:35:06;;;;;;;126.30;12.40;;;;;;;17.93;38.88;102990.58;101263;1359;74224;-83
2021/11/10 15:37:31;;;;;;;128.20;15.30;;;;;;;17.95;39.06;102988.77;101241;1359;59781;-82
2021/11/10 15:39:58;;;;;;;148.90;14.90;;;;;;;17.97;38.95;102997.45;101291;1354;60508;-84
2021/11/10 15:42:24;;;;;;;97.40;13.00;;;;;;;17.99;38.96;102994.53;101255;1358;59806;-85
2021/11/10 15:44:51;;;;;;;124.60;12.90;;;;;;;18.02;39.04;102988.78;101241;1350;59807;-83
2021/11/10 15:47:18;;;;;;;91.50;10.70;;;;;;;18.03;39.04;102994.98;101294;1354;59672;-83
2021/11/10 15:49:47;;;;;;;104.30;13.50;;;;;;;18.06;39.02;103000.45;101350;1354;59622;-85
2021/11/10 15:52:21;;;;;;;86.00;11.90;;;;;;;18.07;39.08;102995.05;101348;1354;72820;-84
2021/11/10 15:55:17;;;;;;;88.60;11.00;;;;;;;18.09;39.12;103002.87;101320;1358;73085;-84
2021/11/10 15:57:46;;;;;;;61.00;9.40;;;;;;;18.11;39.26;102999.98;101517;1351;61292;-84
2021/11/10 16:00:18;;;;;;;45.80;7.60;;;;;;;18.12;39.24;102997.98;101613;1354;61388;-84
2021/11/10 16:03:28;;;;;;;40.00;8.10;;;;;;;18.13;39.34;103005.61;101583;1350;74014;-84
2021/11/10 16:06:31;;;;;;;52.00;8.60;;;;;;;18.14;39.35;103011.12;101707;1349;72893;-85
2021/11/10 16:09:18;;;;;;;71.10;8.90;;;;;;;18.15;39.40;103006.10;101638;1349;60413;-84
2021/11/10 16:11:46;;;;;;;57.80;8.80;;;;;;;18.18;39.49;103009.95;101544;1348;60551;-84
2021/11/10 16:14:34;;;;;;;54.50;8.30;;;;;;;18.20;39.56;103015.27;101499;1350;73847;-85
2021/11/10 16:17:20;;;;;;;51.30;9.30;;;;;;;18.21;39.59;103017.54;101614;1351;74860;-84
2021/11/10 16:19:50;;;;;;;38.60;7.40;;;;;;;18.22;39.69;103020.19;101661;1351;61392;-84
2021/11/10 16:22:22;;;;;;;34.60;7.10;;;;;;;18.23;39.62;103017.50;101611;1350;59641;-84
2021/11/10 16:25:08;;;;;;;32.30;7.00;;;;;;;18.25;39.77;103027.97;101578;1353;73553;-84
2021/11/10 16:27:42;;;;;;;40.50;7.60;;;;;;;18.26;39.78;103026.35;101603;1348;74170;-84
2021/11/10 16:30:20;;;;;;;39.00;7.10;;;;;;;18.28;39.76;103023.64;101584;1351;61402;-84
2021/11/10 16:33:08;;;;;;;25.60;5.20;;;;;;;18.28;39.78;103023.63;101599;1348;60526;-84
2021/11/10 16:35:52;;;;;;;20.10;5.90;;;;;;;18.28;39.70;103024.16;101633;1352;72827;-84
2021/11/10 16:38:46;;;;;;;24.90;7.10;;;;;;;18.28;39.90;103024.15;101721;1350;74548;-84
2021/11/10 16:41:20;;;;;;;35.10;6.80;;;;;;;18.28;39.81;103022.55;101649;1354;60758;-84
2021/11/10 16:44:06;;;;;;;31.40;7.40;;;;;;;18.27;39.91;103021.32;101483;1348;61357;-84
2021/11/10 16:46:53;;;;;;;32.20;7.90;;;;;;;18.28;39.83;103024.88;101615;1348;59631;-84
2021/11/10 16:49:23;;;;;;;28.80;7.90;;;;;;;18.28;39.95;103030.58;101874;1348;74453;-84
2021/11/10 16:51:51;;;;;;;;;;;;;;;18.29;39.95;103029.13;101558;1355;60743;-84
2021/11/10 16:54:20;;;;;;;28.40;6.90;;;;;;;18.26;39.92;103030.09;101649;1351;60411;-84
2021/11/10 16:56:48;;;;;;;28.60;8.10;;;;;;;18.27;39.97;103028.98;101779;1351;72737;-84
2021/11/10 16:59:15;;;;;;;514.80;32.30;;;;;;;18.29;40.07;103027.71;101541;1348;74060;-83
2021/11/10 17:01:42;;;;;;;213.20;15.20;;;;;;;18.29;40.07;103026.45;101547;1348;61366;-83
2021/11/10 17:04:08;;;;;;;151.00;15.50;;;;;;;18.31;40.19;103032.30;101621;1353;61660;-83
2021/11/10 17:06:35;;;;;;;95.10;11.20;;;;;;;18.31;40.33;103031.58;101555;1348;59778;-84
2021/11/10 17:09:01;;;;;;;93.80;11.30;;;;;;;18.32;40.35;103030.84;101553;1351;59631;-83
2021/11/10 17:11:26;;;;;;;78.80;11.10;;;;;;;18.33;40.40;103028.86;101649;1348;59712;-83
2021/11/10 17:13:52;;;;;;;126.30;13.00;;;;;;;18.33;40.37;103032.60;101649;1348;59366;-84
2021/11/10 17:16:18;;;;;;;115.20;13.70;;;;;;;18.33;40.48;103030.45;101625;1352;59647;-83
2021/11/10 17:18:43;;;;;;;126.70;14.20;;;;;;;18.33;40.66;103023.68;101644;1355;62860;-84
2021/11/10 17:21:09;;;;;;;132.80;13.50;;;;;;;18.34;40.72;103025.63;101647;1349;58373;-83
2021/11/10 17:23:35;;;;;;;99.90;12.50;;;;;;;18.35;40.68;103027.02;101658;1348;60825;-83
2021/11/10 17:26:01;;;;;;;90.50;12.90;;;;;;;18.35;40.81;103020.61;101500;1352;59739;-82
2021/11/10 17:28:27;;;;;;;77.40;11.40;;;;;;;18.36;41.01;103019.16;101515;1351;59306;-82
2021/11/10 17:30:53;;;;;;;71.30;12.10;;;;;;;18.36;41.00;103018.09;101483;1353;59858;-82
2021/11/10 17:33:20;;;;;;;80.70;12.80;;;;;;;18.36;41.01;103018.62;101565;1354;59716;-83
2021/11/10 17:35:46;;;;;;;92.00;11.20;;;;;;;18.36;41.07;103012.55;101644;1348;59561;-83
2021/11/10 17:38:12;;;;;;;62.70;10.40;;;;;;;18.36;41.28;103012.01;101664;1352;59883;-83
2021/11/10 17:40:38;;;;;;;73.80;11.40;;;;;;;18.37;41.31;103014.14;101616;1351;59518;-83
2021/11/10 17:43:05;;;;;;;69.20;10.50;;;;;;;18.37;41.25;103013.42;101547;1355;61468;-83
2021/11/10 17:45:30;;;;;;;32.70;7.80;;;;;;;18.37;41.37;103011.63;101965;1348;59738;-84
2021/11/10 17:47:56;;;;;;;23.10;7.70;;;;;;;18.37;41.41;103007.17;101529;1351;59760;-84
2021/11/10 17:50:23;;;;;;;18.60;7.10;;;;;;;18.37;41.39;103008.23;101675;1348;72705;-83
2021/11/10 17:52:49;;;;;;;26.30;8.00;;;;;;;18.36;41.42;103010.23;101580;1348;73255;-83
2021/11/10 17:55:16;;;;;;;159.70;15.40;;;;;;;18.35;41.16;103008.83;101649;1354;59739;-83
2021/11/10 17:57:44;;;;;;;39.40;9.90;;;;;;;18.34;41.15;103012.60;102540;1349;61518;-84
2021/11/10 18:03:58;;;;;;;;;;;;;;;;;;;;;
2021/11/10 18:11:11;;;;;;;81.40;12.80;;;;;;;18.30;41.30;103010.38;99321;1384;61836;-82
2021/11/10 18:18:28;;;;;;;64.80;12.30;;;;;;;18.30;41.27;102995.06;94765;1396;74300;-79
2021/11/10 18:25:59;;;;;;;;;;;;;;;;;;;;;
2021/11/10 18:33:24;;;;;;;60.00;12.70;;;;;;;18.32;41.04;102985.39;101023;1355;601299;-79
2021/11/10 18:40:31;;;;;;;;;;;;;;;;;;;;;
2021/11/10 18:44:07;;;;;;;;;;;;;;;;;;;;;
2021/11/10 18:47:44;;;;;;;;;;;;;;;;;;;;;
2021/11/10 18:51:11;;;;;;;;;;;;;;;;;;;;;
2021/11/10 18:55:00;;;;;;;;;;;;;;;;;;;;;
2021/11/10 19:02:21;;;;;;;;;;;;;;;;;;;;;
2021/11/10 19:05:37;;;;;;;42.60;9.20;;;;;;;18.30;41.37;103000.58;100601;1363;73583;-79
2021/11/10 19:16:46;;;;;;;;;;;;;;;;;;;;;
2021/11/10 19:23:36;;;;;;;50.70;9.60;;;;;;;18.30;41.82;102995.41;98084;1395;59644;-79
2021/11/10 19:27:12;;;;;;;;;;;;;;;;;;;;;
2021/11/10 19:31:01;;;;;;;;;;;;;;;;;;;;;
2021/11/10 19:34:11;;;;;;;35.10;9.00;;;;;;;18.29;41.96;102992.04;96304;1416;71221;-80
2021/11/10 19:37:30;;;;;;;;;;;;;;;;;;;;;
2021/11/10 19:43:51;;;;;;;;;;;;;;;;;;;;;
2021/11/10 19:47:38;;;;;;;39.50;9.10;;;;;;;18.27;42.00;102981.73;100933;1360;72411;-80
2021/11/10 19:51:05;;;;;;;32.00;8.70;;;;;;;18.28;42.09;102990.83;100409;1365;60492;-79
2021/11/10 19:58:43;;;;;;;22.70;8.00;;;;;;;18.26;42.26;102988.02;94928;1390;5203439;-79